sensor_id;sensor_type;location;lat;lon;timestamp;P1;durP1;ratioP1;P2;durP2;ratioP2
6342;SDS011;3204;42.698;23.298;2023-05-10T00:01:24;6.63;;;6.23;;
6342;SDS011;3204;42.698;23.298;2023-05-10T00:03:49;5.97;;;5.67;;
6342;SDS011;3204;42.698;23.298;2023-05-10T00:06:14;5.70;;;5.40;;
6342;SDS011;3204;42.698;23.298;2023-05-10T00:08:40;5.93;;;5.63;;
6342;SDS011;3204;42.698;23.298;2023-05-10T00:11:06;6.20;;;5.90;;
6342;SDS011;3204;42.698;23.298;2023-05-10T00:13:31;6.60;;;6.00;;
6342;SDS011;3204;42.698;23.298;2023-05-10T00:15:57;7.10;;;6.70;;
6342;SDS011;3204;42.698;23.298;2023-05-10T00:18:22;6.77;;;6.37;;
6342;SDS011;3204;42.698;23.298;2023-05-10T00:20:48;6.77;;;6.37;;
6342;SDS011;3204;42.698;23.298;2023-05-10T00:23:13;7.13;;;6.73;;
6342;SDS011;3204;42.698;23.298;2023-05-10T00:25:39;7.50;;;7.10;;
6342;SDS011;3204;42.698;23.298;2023-05-10T00:28:04;7.50;;;7.00;;
6342;SDS011;3204;42.698;23.298;2023-05-10T00:30:30;7.87;;;7.37;;
6342;SDS011;3204;42.698;23.298;2023-05-10T00:32:56;8.43;;;7.73;;
6342;SDS011;3204;42.698;23.298;2023-05-10T00:35:21;8.60;;;8.10;;
6342;SDS011;3204;42.698;23.298;2023-05-10T00:37:47;9.03;;;8.43;;
6342;SDS011;3204;42.698;23.298;2023-05-10T00:40:12;8.73;;;8.13;;
6342;SDS011;3204;42.698;23.298;2023-05-10T00:42:38;8.30;;;7.80;;
6342;SDS011;3204;42.698;23.298;2023-05-10T00:45:04;9.37;;;8.77;;
6342;SDS011;3204;42.698;23.298;2023-05-10T00:47:30;10.10;;;9.50;;
6342;SDS011;3204;42.698;23.298;2023-05-10T00:49:56;9.70;;;9.10;;
6342;SDS011;3204;42.698;23.298;2023-05-10T00:52:22;9.50;;;8.90;;
6342;SDS011;3204;42.698;23.298;2023-05-10T00:54:49;9.37;;;8.77;;
6342;SDS011;3204;42.698;23.298;2023-05-10T00:57:17;9.97;;;9.27;;
6342;SDS011;3204;42.698;23.298;2023-05-10T00:59:42;10.70;;;9.90;;
6342;SDS011;3204;42.698;23.298;2023-05-10T01:02:08;9.80;;;9.20;;
6342;SDS011;3204;42.698;23.298;2023-05-10T01:04:34;10.87;;;10.07;;
6342;SDS011;3204;42.698;23.298;2023-05-10T01:07:00;9.57;;;9.07;;
6342;SDS011;3204;42.698;23.298;2023-05-10T01:09:26;9.70;;;9.10;;
6342;SDS011;3204;42.698;23.298;2023-05-10T01:11:52;9.83;;;9.20;;
6342;SDS011;3204;42.698;23.298;2023-05-10T01:14:19;9.03;;;8.43;;
6342;SDS011;3204;42.698;23.298;2023-05-10T01:16:45;11.17;;;10.37;;
6342;SDS011;3204;42.698;23.298;2023-05-10T01:19:13;9.57;;;8.70;;
6342;SDS011;3204;42.698;23.298;2023-05-10T01:35:30;8.47;;;7.97;;
6342;SDS011;3204;42.698;23.298;2023-05-10T01:40:48;7.97;;;7.57;;
6342;SDS011;3204;42.698;23.298;2023-05-10T01:43:28;9.17;;;8.57;;
6342;SDS011;3204;42.698;23.298;2023-05-10T01:46:02;9.10;;;8.60;;
6342;SDS011;3204;42.698;23.298;2023-05-10T01:48:37;9.40;;;8.70;;
6342;SDS011;3204;42.698;23.298;2023-05-10T01:51:12;9.03;;;8.43;;
6342;SDS011;3204;42.698;23.298;2023-05-10T01:53:41;8.47;;;7.97;;
6342;SDS011;3204;42.698;23.298;2023-05-10T01:56:08;8.87;;;8.27;;
6342;SDS011;3204;42.698;23.298;2023-05-10T01:58:36;8.10;;;7.70;;
6342;SDS011;3204;42.698;23.298;2023-05-10T02:01:05;7.93;;;7.50;;
6342;SDS011;3204;42.698;23.298;2023-05-10T02:03:31;8.30;;;7.80;;
6342;SDS011;3204;42.698;23.298;2023-05-10T02:05:59;7.67;;;7.17;;
6342;SDS011;3204;42.698;23.298;2023-05-10T02:08:25;7.60;;;7.20;;
6342;SDS011;3204;42.698;23.298;2023-05-10T02:10:52;6.50;;;6.20;;
6342;SDS011;3204;42.698;23.298;2023-05-10T02:13:20;7.23;;;6.83;;
6342;SDS011;3204;42.698;23.298;2023-05-10T02:15:48;7.27;;;6.87;;
6342;SDS011;3204;42.698;23.298;2023-05-10T02:18:14;6.77;;;6.37;;
6342;SDS011;3204;42.698;23.298;2023-05-10T02:20:41;6.27;;;5.87;;
6342;SDS011;3204;42.698;23.298;2023-05-10T02:23:10;7.00;;;6.60;;
6342;SDS011;3204;42.698;23.298;2023-05-10T02:25:36;6.03;;;5.70;;
6342;SDS011;3204;42.698;23.298;2023-05-10T02:28:04;6.43;;;6.07;;
6342;SDS011;3204;42.698;23.298;2023-05-10T02:30:32;5.70;;;5.23;;
6342;SDS011;3204;42.698;23.298;2023-05-10T02:32:59;5.80;;;5.43;;
6342;SDS011;3204;42.698;23.298;2023-05-10T02:35:25;5.70;;;5.40;;
6342;SDS011;3204;42.698;23.298;2023-05-10T02:37:52;5.60;;;5.20;;
6342;SDS011;3204;42.698;23.298;2023-05-10T02:40:19;5.70;;;5.40;;
6342;SDS011;3204;42.698;23.298;2023-05-10T02:42:46;5.70;;;5.30;;
6342;SDS011;3204;42.698;23.298;2023-05-10T02:45:15;5.70;;;5.40;;
6342;SDS011;3204;42.698;23.298;2023-05-10T02:47:47;6.00;;;5.60;;
6342;SDS011;3204;42.698;23.298;2023-05-10T02:50:13;6.00;;;5.63;;
6342;SDS011;3204;42.698;23.298;2023-05-10T02:52:39;5.90;;;5.50;;
6342;SDS011;3204;42.698;23.298;2023-05-10T02:55:09;5.77;;;5.47;;
6342;SDS011;3204;42.698;23.298;2023-05-10T02:57:38;5.53;;;5.23;;
6342;SDS011;3204;42.698;23.298;2023-05-10T03:00:06;6.13;;;5.73;;
6342;SDS011;3204;42.698;23.298;2023-05-10T03:02:32;6.10;;;5.80;;
6342;SDS011;3204;42.698;23.298;2023-05-10T03:04:57;6.33;;;5.83;;
6342;SDS011;3204;42.698;23.298;2023-05-10T03:07:22;4.97;;;4.67;;
6342;SDS011;3204;42.698;23.298;2023-05-10T03:09:48;6.17;;;5.60;;
6342;SDS011;3204;42.698;23.298;2023-05-10T03:12:30;6.27;;;5.83;;
6342;SDS011;3204;42.698;23.298;2023-05-10T03:15:06;6.03;;;5.53;;
6342;SDS011;3204;42.698;23.298;2023-05-10T03:20:43;5.27;;;4.90;;
6342;SDS011;3204;42.698;23.298;2023-05-10T03:23:13;6.30;;;5.90;;
6342;SDS011;3204;42.698;23.298;2023-05-10T03:25:49;6.13;;;5.60;;
6342;SDS011;3204;42.698;23.298;2023-05-10T03:28:15;6.37;;;5.97;;
6342;SDS011;3204;42.698;23.298;2023-05-10T03:30:43;6.13;;;5.73;;
6342;SDS011;3204;42.698;23.298;2023-05-10T03:33:08;6.03;;;5.53;;
6342;SDS011;3204;42.698;23.298;2023-05-10T03:35:34;6.53;;;6.03;;
6342;SDS011;3204;42.698;23.298;2023-05-10T03:38:00;6.90;;;6.50;;
6342;SDS011;3204;42.698;23.298;2023-05-10T03:40:26;6.00;;;5.50;;
6342;SDS011;3204;42.698;23.298;2023-05-10T03:42:54;6.73;;;6.33;;
6342;SDS011;3204;42.698;23.298;2023-05-10T03:45:20;6.20;;;5.47;;
6342;SDS011;3204;42.698;23.298;2023-05-10T03:47:45;6.37;;;5.93;;
6342;SDS011;3204;42.698;23.298;2023-05-10T03:50:11;6.90;;;6.40;;
6342;SDS011;3204;42.698;23.298;2023-05-10T03:52:37;6.93;;;6.40;;
6342;SDS011;3204;42.698;23.298;2023-05-10T03:55:04;6.03;;;5.70;;
6342;SDS011;3204;42.698;23.298;2023-05-10T03:57:30;6.20;;;5.80;;
6342;SDS011;3204;42.698;23.298;2023-05-10T03:59:55;5.93;;;5.53;;
6342;SDS011;3204;42.698;23.298;2023-05-10T04:02:21;6.70;;;6.40;;
6342;SDS011;3204;42.698;23.298;2023-05-10T04:04:46;5.80;;;5.50;;
6342;SDS011;3204;42.698;23.298;2023-05-10T04:07:13;6.07;;;5.60;;
6342;SDS011;3204;42.698;23.298;2023-05-10T04:09:39;6.33;;;6.03;;
6342;SDS011;3204;42.698;23.298;2023-05-10T04:12:04;6.60;;;6.20;;
6342;SDS011;3204;42.698;23.298;2023-05-10T04:14:30;7.13;;;6.63;;
6342;SDS011;3204;42.698;23.298;2023-05-10T04:16:55;6.10;;;5.80;;
6342;SDS011;3204;42.698;23.298;2023-05-10T04:19:21;7.00;;;6.50;;
6342;SDS011;3204;42.698;23.298;2023-05-10T04:21:47;7.00;;;6.40;;
6342;SDS011;3204;42.698;23.298;2023-05-10T04:24:12;7.63;;;7.00;;
6342;SDS011;3204;42.698;23.298;2023-05-10T04:26:38;6.97;;;6.57;;
6342;SDS011;3204;42.698;23.298;2023-05-10T04:29:03;6.90;;;6.43;;
6342;SDS011;3204;42.698;23.298;2023-05-10T04:31:29;6.60;;;6.20;;
6342;SDS011;3204;42.698;23.298;2023-05-10T04:33:54;6.73;;;6.20;;
6342;SDS011;3204;42.698;23.298;2023-05-10T04:36:20;7.27;;;6.77;;
6342;SDS011;3204;42.698;23.298;2023-05-10T04:38:45;8.47;;;6.37;;
6342;SDS011;3204;42.698;23.298;2023-05-10T04:41:11;7.50;;;6.70;;
6342;SDS011;3204;42.698;23.298;2023-05-10T04:43:37;7.23;;;6.80;;
6342;SDS011;3204;42.698;23.298;2023-05-10T04:46:03;7.13;;;6.53;;
6342;SDS011;3204;42.698;23.298;2023-05-10T04:48:29;7.70;;;7.07;;
6342;SDS011;3204;42.698;23.298;2023-05-10T04:50:55;6.70;;;6.20;;
6342;SDS011;3204;42.698;23.298;2023-05-10T04:53:21;8.60;;;6.97;;
6342;SDS011;3204;42.698;23.298;2023-05-10T04:55:46;8.17;;;7.63;;
6342;SDS011;3204;42.698;23.298;2023-05-10T04:58:12;7.70;;;7.00;;
6342;SDS011;3204;42.698;23.298;2023-05-10T05:00:38;7.37;;;6.73;;
6342;SDS011;3204;42.698;23.298;2023-05-10T05:03:04;7.27;;;6.63;;
6342;SDS011;3204;42.698;23.298;2023-05-10T05:05:30;7.30;;;6.90;;
6342;SDS011;3204;42.698;23.298;2023-05-10T05:07:55;8.13;;;7.60;;
6342;SDS011;3204;42.698;23.298;2023-05-10T05:10:21;7.73;;;7.13;;
6342;SDS011;3204;42.698;23.298;2023-05-10T05:12:46;7.53;;;7.03;;
6342;SDS011;3204;42.698;23.298;2023-05-10T05:15:12;8.27;;;7.70;;
6342;SDS011;3204;42.698;23.298;2023-05-10T05:17:37;8.43;;;7.67;;
6342;SDS011;3204;42.698;23.298;2023-05-10T05:20:03;7.50;;;7.00;;
6342;SDS011;3204;42.698;23.298;2023-05-10T05:22:29;7.70;;;7.10;;
6342;SDS011;3204;42.698;23.298;2023-05-10T05:24:55;7.30;;;6.90;;
6342;SDS011;3204;42.698;23.298;2023-05-10T05:27:21;8.67;;;7.97;;
6342;SDS011;3204;42.698;23.298;2023-05-10T05:29:53;8.87;;;8.27;;
6342;SDS011;3204;42.698;23.298;2023-05-10T05:32:19;8.57;;;7.87;;
6342;SDS011;3204;42.698;23.298;2023-05-10T05:34:45;8.93;;;8.30;;
6342;SDS011;3204;42.698;23.298;2023-05-10T05:37:17;9.23;;;8.37;;
6342;SDS011;3204;42.698;23.298;2023-05-10T05:39:44;8.63;;;7.83;;
6342;SDS011;3204;42.698;23.298;2023-05-10T05:42:11;8.47;;;7.70;;
6342;SDS011;3204;42.698;23.298;2023-05-10T05:44:37;9.73;;;8.83;;
6342;SDS011;3204;42.698;23.298;2023-05-10T05:47:02;9.47;;;8.53;;
6342;SDS011;3204;42.698;23.298;2023-05-10T05:49:28;9.20;;;8.33;;
6342;SDS011;3204;42.698;23.298;2023-05-10T05:51:54;9.90;;;8.90;;
6342;SDS011;3204;42.698;23.298;2023-05-10T05:54:19;9.60;;;8.80;;
6342;SDS011;3204;42.698;23.298;2023-05-10T05:56:45;9.53;;;8.80;;
6342;SDS011;3204;42.698;23.298;2023-05-10T05:59:11;9.50;;;8.60;;
6342;SDS011;3204;42.698;23.298;2023-05-10T06:01:36;9.90;;;9.13;;
6342;SDS011;3204;42.698;23.298;2023-05-10T06:04:02;10.90;;;8.97;;
6342;SDS011;3204;42.698;23.298;2023-05-10T06:06:28;9.73;;;8.83;;
6342;SDS011;3204;42.698;23.298;2023-05-10T06:08:53;10.77;;;8.53;;
6342;SDS011;3204;42.698;23.298;2023-05-10T06:11:19;9.30;;;8.57;;
6342;SDS011;3204;42.698;23.298;2023-05-10T06:13:46;9.70;;;8.97;;
6342;SDS011;3204;42.698;23.298;2023-05-10T06:16:12;9.47;;;8.70;;
6342;SDS011;3204;42.698;23.298;2023-05-10T06:18:38;9.33;;;8.53;;
6342;SDS011;3204;42.698;23.298;2023-05-10T06:21:03;9.43;;;8.53;;
6342;SDS011;3204;42.698;23.298;2023-05-10T06:23:29;10.17;;;8.50;;
6342;SDS011;3204;42.698;23.298;2023-05-10T06:25:54;10.77;;;9.07;;
6342;SDS011;3204;42.698;23.298;2023-05-10T06:28:20;11.40;;;10.30;;
6342;SDS011;3204;42.698;23.298;2023-05-10T06:30:46;9.13;;;8.53;;
6342;SDS011;3204;42.698;23.298;2023-05-10T06:33:11;9.13;;;8.50;;
6342;SDS011;3204;42.698;23.298;2023-05-10T06:35:37;9.90;;;8.80;;
6342;SDS011;3204;42.698;23.298;2023-05-10T06:38:03;9.70;;;8.90;;
6342;SDS011;3204;42.698;23.298;2023-05-10T06:40:29;9.13;;;7.83;;
6342;SDS011;3204;42.698;23.298;2023-05-10T06:42:55;9.50;;;8.50;;
6342;SDS011;3204;42.698;23.298;2023-05-10T06:45:20;8.77;;;7.83;;
6342;SDS011;3204;42.698;23.298;2023-05-10T06:47:45;8.70;;;8.10;;
6342;SDS011;3204;42.698;23.298;2023-05-10T06:50:11;8.17;;;7.63;;
6342;SDS011;3204;42.698;23.298;2023-05-10T06:52:37;8.90;;;8.07;;
6342;SDS011;3204;42.698;23.298;2023-05-10T06:55:06;9.43;;;8.63;;
6342;SDS011;3204;42.698;23.298;2023-05-10T06:57:31;9.23;;;8.00;;
6342;SDS011;3204;42.698;23.298;2023-05-10T07:00:00;8.90;;;8.13;;
6342;SDS011;3204;42.698;23.298;2023-05-10T07:02:26;8.83;;;8.23;;
6342;SDS011;3204;42.698;23.298;2023-05-10T07:04:52;8.70;;;7.93;;
6342;SDS011;3204;42.698;23.298;2023-05-10T07:07:17;8.97;;;8.27;;
6342;SDS011;3204;42.698;23.298;2023-05-10T07:09:43;8.90;;;8.10;;
6342;SDS011;3204;42.698;23.298;2023-05-10T07:12:08;8.53;;;7.67;;
6342;SDS011;3204;42.698;23.298;2023-05-10T07:14:34;8.60;;;8.00;;
6342;SDS011;3204;42.698;23.298;2023-05-10T07:16:59;8.07;;;7.47;;
6342;SDS011;3204;42.698;23.298;2023-05-10T07:19:24;9.17;;;8.57;;
6342;SDS011;3204;42.698;23.298;2023-05-10T07:21:50;8.20;;;7.40;;
6342;SDS011;3204;42.698;23.298;2023-05-10T07:24:15;8.57;;;7.77;;
6342;SDS011;3204;42.698;23.298;2023-05-10T07:26:41;9.53;;;8.10;;
6342;SDS011;3204;42.698;23.298;2023-05-10T07:29:06;9.07;;;8.27;;
6342;SDS011;3204;42.698;23.298;2023-05-10T07:31:32;9.57;;;8.77;;
6342;SDS011;3204;42.698;23.298;2023-05-10T07:33:57;9.00;;;8.20;;
6342;SDS011;3204;42.698;23.298;2023-05-10T07:36:23;9.37;;;8.60;;
6342;SDS011;3204;42.698;23.298;2023-05-10T07:38:48;9.93;;;9.03;;
6342;SDS011;3204;42.698;23.298;2023-05-10T07:41:14;9.37;;;8.67;;
6342;SDS011;3204;42.698;23.298;2023-05-10T07:43:40;10.97;;;9.23;;
6342;SDS011;3204;42.698;23.298;2023-05-10T07:46:05;9.90;;;8.87;;
6342;SDS011;3204;42.698;23.298;2023-05-10T07:48:31;9.83;;;9.03;;
6342;SDS011;3204;42.698;23.298;2023-05-10T07:50:56;9.27;;;8.57;;
6342;SDS011;3204;42.698;23.298;2023-05-10T07:53:21;10.17;;;9.37;;
6342;SDS011;3204;42.698;23.298;2023-05-10T07:55:50;11.10;;;10.23;;
6342;SDS011;3204;42.698;23.298;2023-05-10T07:58:16;10.17;;;9.27;;
6342;SDS011;3204;42.698;23.298;2023-05-10T08:00:42;10.77;;;9.97;;
6342;SDS011;3204;42.698;23.298;2023-05-10T08:03:07;13.03;;;11.83;;
6342;SDS011;3204;42.698;23.298;2023-05-10T08:05:33;11.57;;;10.37;;
6342;SDS011;3204;42.698;23.298;2023-05-10T08:07:58;11.73;;;10.63;;
6342;SDS011;3204;42.698;23.298;2023-05-10T08:10:24;9.83;;;9.03;;
6342;SDS011;3204;42.698;23.298;2023-05-10T08:12:50;11.03;;;10.13;;
6342;SDS011;3204;42.698;23.298;2023-05-10T08:15:15;12.43;;;11.10;;
6342;SDS011;3204;42.698;23.298;2023-05-10T08:17:41;12.50;;;11.27;;
6342;SDS011;3204;42.698;23.298;2023-05-10T08:20:08;12.23;;;11.13;;
6342;SDS011;3204;42.698;23.298;2023-05-10T08:22:33;10.17;;;9.40;;
6342;SDS011;3204;42.698;23.298;2023-05-10T08:24:59;11.87;;;10.70;;
6342;SDS011;3204;42.698;23.298;2023-05-10T08:27:24;9.97;;;9.37;;
6342;SDS011;3204;42.698;23.298;2023-05-10T08:29:50;10.03;;;9.23;;
6342;SDS011;3204;42.698;23.298;2023-05-10T08:32:15;10.93;;;10.13;;
6342;SDS011;3204;42.698;23.298;2023-05-10T08:34:41;11.83;;;10.67;;
6342;SDS011;3204;42.698;23.298;2023-05-10T08:37:07;11.00;;;10.07;;
6342;SDS011;3204;42.698;23.298;2023-05-10T08:39:35;11.40;;;10.50;;
6342;SDS011;3204;42.698;23.298;2023-05-10T08:42:01;10.63;;;9.73;;
6342;SDS011;3204;42.698;23.298;2023-05-10T08:44:29;9.23;;;8.63;;
6342;SDS011;3204;42.698;23.298;2023-05-10T08:46:57;11.00;;;10.03;;
6342;SDS011;3204;42.698;23.298;2023-05-10T08:49:24;11.50;;;9.80;;
6342;SDS011;3204;42.698;23.298;2023-05-10T08:51:55;10.80;;;9.93;;
6342;SDS011;3204;42.698;23.298;2023-05-10T08:54:24;12.27;;;11.07;;
6342;SDS011;3204;42.698;23.298;2023-05-10T08:56:50;10.60;;;9.90;;
6342;SDS011;3204;42.698;23.298;2023-05-10T08:59:15;11.43;;;10.33;;
6342;SDS011;3204;42.698;23.298;2023-05-10T09:01:42;11.77;;;10.80;;
6342;SDS011;3204;42.698;23.298;2023-05-10T09:04:07;11.27;;;10.33;;
6342;SDS011;3204;42.698;23.298;2023-05-10T09:06:33;10.10;;;9.37;;
6342;SDS011;3204;42.698;23.298;2023-05-10T09:08:59;9.27;;;8.57;;
6342;SDS011;3204;42.698;23.298;2023-05-10T09:11:24;10.53;;;9.70;;
6342;SDS011;3204;42.698;23.298;2023-05-10T09:13:50;10.73;;;9.93;;
6342;SDS011;3204;42.698;23.298;2023-05-10T09:16:17;11.27;;;10.37;;
6342;SDS011;3204;42.698;23.298;2023-05-10T09:18:42;10.67;;;9.87;;
6342;SDS011;3204;42.698;23.298;2023-05-10T09:21:08;11.80;;;10.73;;
6342;SDS011;3204;42.698;23.298;2023-05-10T09:23:35;11.63;;;10.43;;
6342;SDS011;3204;42.698;23.298;2023-05-10T09:26:06;11.43;;;10.43;;
6342;SDS011;3204;42.698;23.298;2023-05-10T09:28:54;9.97;;;9.27;;
6342;SDS011;3204;42.698;23.298;2023-05-10T09:31:20;10.90;;;9.87;;
6342;SDS011;3204;42.698;23.298;2023-05-10T09:33:46;9.77;;;9.13;;
6342;SDS011;3204;42.698;23.298;2023-05-10T09:36:13;10.53;;;9.50;;
6342;SDS011;3204;42.698;23.298;2023-05-10T09:38:49;10.60;;;9.70;;
6342;SDS011;3204;42.698;23.298;2023-05-10T09:41:19;11.43;;;10.53;;
6342;SDS011;3204;42.698;23.298;2023-05-10T09:43:46;11.73;;;10.63;;
6342;SDS011;3204;42.698;23.298;2023-05-10T09:46:12;11.37;;;10.33;;
6342;SDS011;3204;42.698;23.298;2023-05-10T09:48:41;10.83;;;10.03;;
6342;SDS011;3204;42.698;23.298;2023-05-10T09:51:09;12.97;;;11.73;;
6342;SDS011;3204;42.698;23.298;2023-05-10T09:53:34;11.50;;;10.52;;
6342;SDS011;3204;42.698;23.298;2023-05-10T09:56:00;12.17;;;11.07;;
6342;SDS011;3204;42.698;23.298;2023-05-10T09:58:25;11.68;;;10.20;;
6342;SDS011;3204;42.698;23.298;2023-05-10T10:00:51;11.32;;;10.35;;
6342;SDS011;3204;42.698;23.298;2023-05-10T10:03:18;12.05;;;11.05;;
6342;SDS011;3204;42.698;23.298;2023-05-10T10:05:46;10.93;;;10.13;;
6342;SDS011;3204;42.698;23.298;2023-05-10T10:08:12;9.03;;;8.43;;
6342;SDS011;3204;42.698;23.298;2023-05-10T10:10:39;9.32;;;8.80;;
6342;SDS011;3204;42.698;23.298;2023-05-10T10:13:05;9.98;;;9.30;;
6342;SDS011;3204;42.698;23.298;2023-05-10T10:15:32;10.53;;;9.83;;
6342;SDS011;3204;42.698;23.298;2023-05-10T10:17:59;10.93;;;10.13;;
6342;SDS011;3204;42.698;23.298;2023-05-10T10:20:25;12.55;;;11.40;;
6342;SDS011;3204;42.698;23.298;2023-05-10T10:22:51;11.95;;;10.90;;
6342;SDS011;3204;42.698;23.298;2023-05-10T10:25:17;10.05;;;9.10;;
6342;SDS011;3204;42.698;23.298;2023-05-10T10:30:27;10.27;;;9.43;;
6342;SDS011;3204;42.698;23.298;2023-05-10T10:36:11;9.70;;;9.15;;
6342;SDS011;3204;42.698;23.298;2023-05-10T10:49:27;8.73;;;8.20;;
6342;SDS011;3204;42.698;23.298;2023-05-10T10:57:21;8.02;;;7.43;;
6342;SDS011;3204;42.698;23.298;2023-05-10T10:59:47;8.18;;;7.68;;
6342;SDS011;3204;42.698;23.298;2023-05-10T11:07:58;8.13;;;7.63;;
6342;SDS011;3204;42.698;23.298;2023-05-10T11:10:25;7.53;;;7.13;;
6342;SDS011;3204;42.698;23.298;2023-05-10T11:13:04;9.77;;;8.75;;
6342;SDS011;3204;42.698;23.298;2023-05-10T11:15:38;9.50;;;8.77;;
6342;SDS011;3204;42.698;23.298;2023-05-10T11:18:17;8.18;;;7.60;;
6342;SDS011;3204;42.698;23.298;2023-05-10T11:20:51;8.05;;;7.47;;
6342;SDS011;3204;42.698;23.298;2023-05-10T11:23:20;7.57;;;7.07;;
6342;SDS011;3204;42.698;23.298;2023-05-10T11:25:47;8.25;;;7.65;;
6342;SDS011;3204;42.698;23.298;2023-05-10T11:28:13;9.32;;;8.43;;
6342;SDS011;3204;42.698;23.298;2023-05-10T11:30:40;8.68;;;7.95;;
6342;SDS011;3204;42.698;23.298;2023-05-10T11:33:06;9.52;;;8.52;;
6342;SDS011;3204;42.698;23.298;2023-05-10T11:35:39;8.60;;;8.00;;
6342;SDS011;3204;42.698;23.298;2023-05-10T11:38:12;8.07;;;7.47;;
6342;SDS011;3204;42.698;23.298;2023-05-10T11:40:38;8.90;;;8.07;;
6342;SDS011;3204;42.698;23.298;2023-05-10T11:43:04;8.63;;;7.80;;
6342;SDS011;3204;42.698;23.298;2023-05-10T11:45:33;8.02;;;7.32;;
6342;SDS011;3204;42.698;23.298;2023-05-10T11:47:59;8.02;;;7.47;;
6342;SDS011;3204;42.698;23.298;2023-05-10T11:50:25;8.20;;;7.60;;
6342;SDS011;3204;42.698;23.298;2023-05-10T11:52:53;8.68;;;7.32;;
6342;SDS011;3204;42.698;23.298;2023-05-10T11:55:20;8.23;;;7.47;;
6342;SDS011;3204;42.698;23.298;2023-05-10T11:57:46;8.05;;;7.40;;
6342;SDS011;3204;42.698;23.298;2023-05-10T12:00:12;8.05;;;7.38;;
6342;SDS011;3204;42.698;23.298;2023-05-10T12:02:38;8.00;;;7.45;;
6342;SDS011;3204;42.698;23.298;2023-05-10T12:05:04;8.48;;;8.02;;
6342;SDS011;3204;42.698;23.298;2023-05-10T12:07:32;9.00;;;7.93;;
6342;SDS011;3204;42.698;23.298;2023-05-10T12:12:43;8.25;;;7.00;;
6342;SDS011;3204;42.698;23.298;2023-05-10T12:15:16;8.95;;;8.15;;
6342;SDS011;3204;42.698;23.298;2023-05-10T12:17:45;9.88;;;8.55;;
6342;SDS011;3204;42.698;23.298;2023-05-10T12:20:15;8.05;;;7.55;;
6342;SDS011;3204;42.698;23.298;2023-05-10T12:22:51;8.10;;;7.43;;
6342;SDS011;3204;42.698;23.298;2023-05-10T12:25:18;10.10;;;9.10;;
6342;SDS011;3204;42.698;23.298;2023-05-10T12:27:56;9.13;;;8.52;;
6342;SDS011;3204;42.698;23.298;2023-05-10T12:30:23;9.63;;;9.02;;
6342;SDS011;3204;42.698;23.298;2023-05-10T12:32:49;8.98;;;8.13;;
6342;SDS011;3204;42.698;23.298;2023-05-10T12:35:15;9.90;;;8.02;;
6342;SDS011;3204;42.698;23.298;2023-05-10T12:37:44;8.05;;;7.43;;
6342;SDS011;3204;42.698;23.298;2023-05-10T12:40:10;9.27;;;8.40;;
6342;SDS011;3204;42.698;23.298;2023-05-10T12:42:36;9.50;;;8.60;;
6342;SDS011;3204;42.698;23.298;2023-05-10T12:45:04;9.40;;;8.50;;
6342;SDS011;3204;42.698;23.298;2023-05-10T12:47:30;9.55;;;8.88;;
6342;SDS011;3204;42.698;23.298;2023-05-10T12:49:56;8.07;;;7.53;;
6342;SDS011;3204;42.698;23.298;2023-05-10T12:52:22;8.75;;;8.02;;
6342;SDS011;3204;42.698;23.298;2023-05-10T12:54:47;8.57;;;8.07;;
6342;SDS011;3204;42.698;23.298;2023-05-10T12:57:14;8.63;;;8.02;;
6342;SDS011;3204;42.698;23.298;2023-05-10T12:59:39;8.60;;;7.90;;
6342;SDS011;3204;42.698;23.298;2023-05-10T13:02:05;10.00;;;9.07;;
6342;SDS011;3204;42.698;23.298;2023-05-10T13:04:31;8.23;;;7.70;;
6342;SDS011;3204;42.698;23.298;2023-05-10T13:06:57;8.70;;;8.10;;
6342;SDS011;3204;42.698;23.298;2023-05-10T13:09:26;8.88;;;7.97;;
6342;SDS011;3204;42.698;23.298;2023-05-10T13:11:54;9.50;;;8.60;;
6342;SDS011;3204;42.698;23.298;2023-05-10T13:14:20;9.45;;;8.65;;
6342;SDS011;3204;42.698;23.298;2023-05-10T13:16:46;9.43;;;8.50;;
6342;SDS011;3204;42.698;23.298;2023-05-10T13:19:12;8.27;;;7.68;;
6342;SDS011;3204;42.698;23.298;2023-05-10T13:21:40;10.25;;;8.65;;
6342;SDS011;3204;42.698;23.298;2023-05-10T13:24:06;9.90;;;9.02;;
6342;SDS011;3204;42.698;23.298;2023-05-10T13:26:32;9.60;;;8.90;;
6342;SDS011;3204;42.698;23.298;2023-05-10T13:28:58;9.30;;;8.38;;
6342;SDS011;3204;42.698;23.298;2023-05-10T13:31:23;9.18;;;8.57;;
6342;SDS011;3204;42.698;23.298;2023-05-10T13:33:49;9.02;;;8.32;;
6342;SDS011;3204;42.698;23.298;2023-05-10T13:36:15;8.70;;;7.85;;
6342;SDS011;3204;42.698;23.298;2023-05-10T13:38:40;9.10;;;8.50;;
6342;SDS011;3204;42.698;23.298;2023-05-10T13:41:06;8.18;;;7.68;;
6342;SDS011;3204;42.698;23.298;2023-05-10T13:43:31;7.28;;;6.60;;
6342;SDS011;3204;42.698;23.298;2023-05-10T13:45:57;8.63;;;7.85;;
6342;SDS011;3204;42.698;23.298;2023-05-10T13:48:22;8.80;;;7.53;;
6342;SDS011;3204;42.698;23.298;2023-05-10T13:50:48;7.28;;;6.63;;
6342;SDS011;3204;42.698;23.298;2023-05-10T13:53:13;8.25;;;7.70;;
6342;SDS011;3204;42.698;23.298;2023-05-10T13:55:39;7.30;;;6.80;;
6342;SDS011;3204;42.698;23.298;2023-05-10T13:58:05;7.40;;;6.75;;
6342;SDS011;3204;42.698;23.298;2023-05-10T14:00:30;7.72;;;7.15;;
6342;SDS011;3204;42.698;23.298;2023-05-10T14:02:56;8.50;;;7.38;;
6342;SDS011;3204;42.698;23.298;2023-05-10T14:05:21;9.02;;;8.27;;
6342;SDS011;3204;42.698;23.298;2023-05-10T14:07:48;9.18;;;8.32;;
6342;SDS011;3204;42.698;23.298;2023-05-10T14:10:15;8.65;;;7.97;;
6342;SDS011;3204;42.698;23.298;2023-05-10T14:12:40;9.57;;;8.85;;
6342;SDS011;3204;42.698;23.298;2023-05-10T14:15:06;9.70;;;8.75;;
6342;SDS011;3204;42.698;23.298;2023-05-10T14:17:32;9.57;;;8.77;;
6342;SDS011;3204;42.698;23.298;2023-05-10T14:19:57;9.20;;;8.40;;
6342;SDS011;3204;42.698;23.298;2023-05-10T14:22:23;9.23;;;8.52;;
6342;SDS011;3204;42.698;23.298;2023-05-10T14:24:48;9.00;;;8.20;;
6342;SDS011;3204;42.698;23.298;2023-05-10T14:27:14;7.88;;;7.25;;
6342;SDS011;3204;42.698;23.298;2023-05-10T14:29:40;8.38;;;7.63;;
6342;SDS011;3204;42.698;23.298;2023-05-10T14:32:05;9.27;;;7.90;;
6342;SDS011;3204;42.698;23.298;2023-05-10T14:34:30;9.05;;;8.45;;
6342;SDS011;3204;42.698;23.298;2023-05-10T14:36:56;8.73;;;8.00;;
6342;SDS011;3204;42.698;23.298;2023-05-10T14:39:21;8.77;;;8.10;;
6342;SDS011;3204;42.698;23.298;2023-05-10T14:41:51;9.43;;;7.97;;
6342;SDS011;3204;42.698;23.298;2023-05-10T14:44:19;8.18;;;7.50;;
6342;SDS011;3204;42.698;23.298;2023-05-10T14:46:45;8.45;;;7.75;;
6342;SDS011;3204;42.698;23.298;2023-05-10T14:49:10;9.60;;;8.90;;
6342;SDS011;3204;42.698;23.298;2023-05-10T14:51:36;9.15;;;8.43;;
6342;SDS011;3204;42.698;23.298;2023-05-10T14:54:01;9.60;;;8.82;;
6342;SDS011;3204;42.698;23.298;2023-05-10T14:56:27;10.80;;;8.77;;
6342;SDS011;3204;42.698;23.298;2023-05-10T14:58:53;9.68;;;8.73;;
6342;SDS011;3204;42.698;23.298;2023-05-10T15:01:18;8.65;;;8.05;;
6342;SDS011;3204;42.698;23.298;2023-05-10T15:03:44;9.20;;;8.60;;
6342;SDS011;3204;42.698;23.298;2023-05-10T15:06:09;8.98;;;8.27;;
6342;SDS011;3204;42.698;23.298;2023-05-10T15:08:35;8.02;;;7.30;;
6342;SDS011;3204;42.698;23.298;2023-05-10T15:11:01;9.07;;;8.27;;
6342;SDS011;3204;42.698;23.298;2023-05-10T15:13:26;8.77;;;8.07;;
6342;SDS011;3204;42.698;23.298;2023-05-10T15:15:52;9.13;;;8.48;;
6342;SDS011;3204;42.698;23.298;2023-05-10T15:18:17;9.20;;;8.45;;
6342;SDS011;3204;42.698;23.298;2023-05-10T15:20:42;8.82;;;8.15;;
6342;SDS011;3204;42.698;23.298;2023-05-10T15:23:08;8.13;;;7.60;;
6342;SDS011;3204;42.698;23.298;2023-05-10T15:25:33;8.55;;;7.72;;
6342;SDS011;3204;42.698;23.298;2023-05-10T15:28:00;8.43;;;7.68;;
6342;SDS011;3204;42.698;23.298;2023-05-10T15:30:27;8.25;;;7.47;;
6342;SDS011;3204;42.698;23.298;2023-05-10T15:32:52;8.05;;;7.38;;
6342;SDS011;3204;42.698;23.298;2023-05-10T15:35:18;6.20;;;5.82;;
6342;SDS011;3204;42.698;23.298;2023-05-10T15:37:44;9.05;;;8.13;;
6342;SDS011;3204;42.698;23.298;2023-05-10T15:40:09;8.35;;;7.65;;
6342;SDS011;3204;42.698;23.298;2023-05-10T15:42:35;7.93;;;7.32;;
6342;SDS011;3204;42.698;23.298;2023-05-10T15:45:00;8.73;;;8.02;;